createdAt,value
2018-12-24T00:00:23.649Z,1006.28
2018-12-24T00:01:23.624Z,1006.25
2018-12-24T00:02:23.601Z,1006.28
2018-12-24T00:03:23.573Z,1006.30
2018-12-24T00:04:23.659Z,1006.34
2018-12-24T00:05:23.525Z,1006.29
2018-12-24T00:06:23.501Z,1006.36
2018-12-24T00:07:23.476Z,1006.40
2018-12-24T00:08:23.452Z,1006.37
2018-12-24T00:09:23.427Z,1006.40
2018-12-24T00:10:23.402Z,1006.43
2018-12-24T00:11:23.378Z,1006.46
2018-12-24T00:12:23.354Z,1006.46
2018-12-24T00:13:23.328Z,1006.47
2018-12-24T00:14:23.306Z,1006.47
2018-12-24T00:15:23.280Z,1006.50
2018-12-24T00:16:23.255Z,1006.49
2018-12-24T00:17:23.232Z,1006.51
2018-12-24T00:18:23.207Z,1006.52
2018-12-24T00:19:23.182Z,1006.50
2018-12-24T00:20:23.158Z,1006.50
2018-12-24T00:21:23.135Z,1006.52
2018-12-24T00:22:23.110Z,1006.49
2018-12-24T00:23:23.083Z,1006.52
2018-12-24T00:24:23.059Z,1006.53
2018-12-24T00:25:23.034Z,1006.55
2018-12-24T00:26:23.011Z,1006.54
2018-12-24T00:27:22.986Z,1006.54
2018-12-24T00:28:22.961Z,1006.55
2018-12-24T00:29:22.939Z,1006.57
2018-12-24T00:30:22.931Z,1006.58
2018-12-24T00:31:22.888Z,1006.59
2018-12-24T00:32:22.863Z,1006.57
2018-12-24T00:33:22.840Z,1006.60
2018-12-24T00:34:22.816Z,1006.60
2018-12-24T00:35:22.791Z,1006.63
2018-12-24T00:36:22.765Z,1006.58
2018-12-24T00:37:22.743Z,1006.64
2018-12-24T00:38:22.718Z,1006.66
2018-12-24T00:39:22.696Z,1006.70
2018-12-24T00:40:22.668Z,1006.69
2018-12-24T00:41:22.644Z,1006.74
2018-12-24T00:42:22.618Z,1006.78
2018-12-24T00:43:22.595Z,1006.78
2018-12-24T00:44:22.571Z,1006.81
2018-12-24T00:45:22.547Z,1006.82
2018-12-24T00:46:22.522Z,1006.84
2018-12-24T00:47:22.497Z,1006.81
2018-12-24T00:48:22.473Z,1006.85
2018-12-24T00:49:22.450Z,1006.81
2018-12-24T00:50:22.424Z,1006.86
2018-12-24T00:51:22.399Z,1006.88
2018-12-24T00:52:22.375Z,1006.90
2018-12-24T00:53:22.350Z,1006.92
2018-12-24T00:54:22.327Z,1006.95
2018-12-24T00:55:22.302Z,1006.94
2018-12-24T00:56:22.276Z,1007.03
2018-12-24T00:57:22.251Z,1007.04
2018-12-24T00:58:22.228Z,1007.03
2018-12-24T00:59:22.203Z,1007.10
2018-12-24T01:00:22.178Z,1007.12
2018-12-24T01:01:22.153Z,1007.15
2018-12-24T01:02:22.129Z,1007.10
2018-12-24T01:03:22.104Z,1007.13
2018-12-24T01:04:22.083Z,1007.20
2018-12-24T01:05:22.056Z,1007.20
2018-12-24T01:06:22.031Z,1007.23
2018-12-24T01:07:22.007Z,1007.21
2018-12-24T01:08:21.982Z,1007.25
2018-12-24T01:09:21.958Z,1007.31
2018-12-24T01:10:21.932Z,1007.31
2018-12-24T01:11:21.947Z,1007.35
2018-12-24T01:12:24.756Z,1007.40
2018-12-24T01:13:21.859Z,1007.47
2018-12-24T01:14:21.834Z,1007.47
2018-12-24T01:15:21.809Z,1007.49
2018-12-24T01:16:21.784Z,1007.50
2018-12-24T01:17:21.759Z,1007.54
2018-12-24T01:18:21.736Z,1007.51
2018-12-24T01:19:21.715Z,1007.59
2018-12-24T01:20:21.686Z,1007.62
2018-12-24T01:21:21.662Z,1007.64
2018-12-24T01:22:21.639Z,1007.66
2018-12-24T01:23:21.611Z,1007.66
2018-12-24T01:24:21.590Z,1007.64
2018-12-24T01:25:21.563Z,1007.70
2018-12-24T01:26:21.540Z,1007.72
2018-12-24T01:27:21.513Z,1007.75
2018-12-24T01:28:21.487Z,1007.73
2018-12-24T01:29:21.463Z,1007.73
2018-12-24T01:30:21.438Z,1007.75
2018-12-24T01:31:21.413Z,1007.77
2018-12-24T01:32:21.391Z,1007.83
2018-12-24T01:33:21.363Z,1007.83
2018-12-24T01:34:21.339Z,1007.89
2018-12-24T01:35:21.313Z,1007.92
2018-12-24T01:36:21.288Z,1007.98
2018-12-24T01:37:21.264Z,1007.97
2018-12-24T01:38:21.239Z,1008.01
2018-12-24T01:39:21.215Z,1008.03
2018-12-24T01:40:21.190Z,1008.04
2018-12-24T01:41:21.166Z,1008.05
2018-12-24T01:42:21.139Z,1008.09
2018-12-24T01:43:21.115Z,1008.11
2018-12-24T01:44:21.088Z,1008.13
2018-12-24T01:45:21.063Z,1008.14
2018-12-24T01:46:21.038Z,1008.14
2018-12-24T01:47:21.011Z,1008.17
2018-12-24T01:48:20.987Z,1008.16
2018-12-24T01:49:20.963Z,1008.18
2018-12-24T01:50:20.939Z,1008.18
2018-12-24T01:51:20.912Z,1008.25
2018-12-24T01:52:20.887Z,1008.29
2018-12-24T01:53:20.862Z,1008.32
2018-12-24T01:54:20.836Z,1008.37
2018-12-24T01:55:20.811Z,1008.42
2018-12-24T01:56:20.787Z,1008.39
2018-12-24T01:57:20.761Z,1008.44
2018-12-24T01:58:20.737Z,1008.47
2018-12-24T01:59:20.710Z,1008.53
2018-12-24T02:00:20.686Z,1008.57
2018-12-24T02:01:20.661Z,1008.58
2018-12-24T02:02:20.636Z,1008.58
2018-12-24T02:03:20.611Z,1008.64
2018-12-24T02:04:20.586Z,1008.66
2018-12-24T02:05:20.563Z,1008.69
2018-12-24T02:06:20.536Z,1008.72
2018-12-24T02:07:20.508Z,1008.71
2018-12-24T02:08:20.485Z,1008.73
2018-12-24T02:09:20.460Z,1008.76
2018-12-24T02:10:20.435Z,1008.77
2018-12-24T02:11:20.409Z,1008.83
2018-12-24T02:12:20.384Z,1008.82
2018-12-24T02:13:20.359Z,1008.85
2018-12-24T02:14:20.332Z,1008.83
2018-12-24T02:15:20.314Z,1008.84
2018-12-24T02:16:20.283Z,1008.86
2018-12-24T02:17:20.257Z,1008.85
2018-12-24T02:18:20.233Z,1008.89
2018-12-24T02:19:20.206Z,1008.91
2018-12-24T02:20:20.185Z,1008.93
2018-12-24T02:21:20.157Z,1008.96
2018-12-24T02:22:20.132Z,1008.98
2018-12-24T02:23:20.104Z,1009.01
2018-12-24T02:24:20.158Z,1009.01
2018-12-24T02:25:20.057Z,1009.01
2018-12-24T02:26:20.030Z,1009.03
2018-12-24T02:27:20.004Z,1009.07
2018-12-24T02:28:19.979Z,1009.08
2018-12-24T02:29:19.954Z,1009.11
2018-12-24T02:30:19.934Z,1009.09
2018-12-24T02:31:19.903Z,1009.15
2018-12-24T02:32:19.878Z,1009.16
2018-12-24T02:33:19.853Z,1009.20
2018-12-24T02:34:19.831Z,1009.27
2018-12-24T02:35:19.801Z,1009.23
2018-12-24T02:36:19.780Z,1009.26
2018-12-24T02:37:19.754Z,1009.30
2018-12-24T02:38:19.727Z,1009.36
2018-12-24T02:39:19.700Z,1009.40
2018-12-24T02:40:19.679Z,1009.40
2018-12-24T02:41:19.650Z,1009.43
2018-12-24T02:42:19.628Z,1009.48
2018-12-24T02:43:19.599Z,1009.49
2018-12-24T02:44:19.574Z,1009.49
2018-12-24T02:45:19.549Z,1009.51
2018-12-24T02:46:19.524Z,1009.52
2018-12-24T02:47:19.498Z,1009.53
2018-12-24T02:48:19.475Z,1009.53
2018-12-24T02:49:19.447Z,1009.59
2018-12-24T02:50:19.434Z,1009.57
2018-12-24T02:51:19.398Z,1009.64
2018-12-24T02:52:19.376Z,1009.60
2018-12-24T02:53:19.346Z,1009.62
2018-12-24T02:54:19.323Z,1009.62
2018-12-24T02:55:19.298Z,1009.63
2018-12-24T02:56:19.270Z,1009.65
2018-12-24T02:57:19.245Z,1009.69
2018-12-24T02:58:19.220Z,1009.67
2018-12-24T02:59:19.194Z,1009.69
2018-12-24T03:00:19.168Z,1009.71
2018-12-24T03:01:19.145Z,1009.74
2018-12-24T03:02:19.119Z,1009.72
2018-12-24T03:03:19.091Z,1009.79
2018-12-24T03:04:19.068Z,1009.81
2018-12-24T03:05:19.117Z,1009.80
2018-12-24T03:06:19.016Z,1009.81
2018-12-24T03:07:18.993Z,1009.81
2018-12-24T03:08:18.967Z,1009.87
2018-12-24T03:09:18.941Z,1009.88
2018-12-24T03:10:18.917Z,1009.89
2018-12-24T03:11:18.892Z,1009.93
2018-12-24T03:12:18.866Z,1009.94
2018-12-24T03:13:18.839Z,1009.97
2018-12-24T03:14:18.814Z,1009.99
2018-12-24T03:15:18.789Z,1010.01
2018-12-24T03:16:18.768Z,1010.06
2018-12-24T03:17:18.740Z,1010.08
2018-12-24T03:18:18.712Z,1010.11
2018-12-24T03:19:18.690Z,1010.13
2018-12-24T03:20:18.663Z,1010.15
2018-12-24T03:21:18.636Z,1010.17
2018-12-24T03:22:18.612Z,1010.17
2018-12-24T03:23:18.590Z,1010.17
2018-12-24T03:24:18.561Z,1010.17
2018-12-24T03:25:18.534Z,1010.19
2018-12-24T03:26:18.509Z,1010.18
2018-12-24T03:27:18.489Z,1010.20
2018-12-24T03:28:18.458Z,1010.23
2018-12-24T03:29:18.432Z,1010.27
2018-12-24T03:30:18.575Z,1010.27
2018-12-24T03:31:18.385Z,1010.31
2018-12-24T03:32:18.355Z,1010.26
2018-12-24T03:33:18.340Z,1010.31
2018-12-24T03:34:18.304Z,1010.32
2018-12-24T03:35:18.279Z,1010.35
2018-12-24T03:36:18.253Z,1010.40
2018-12-24T03:37:18.232Z,1010.40
2018-12-24T03:38:18.200Z,1010.42
2018-12-24T03:39:18.180Z,1010.47
2018-12-24T03:40:18.150Z,1010.50
2018-12-24T03:41:18.124Z,1010.52
2018-12-24T03:42:18.101Z,1010.50
2018-12-24T03:43:18.075Z,1010.55
2018-12-24T03:44:18.047Z,1010.57
2018-12-24T03:45:18.022Z,1010.63
2018-12-24T03:46:17.995Z,1010.64
2018-12-24T03:47:17.968Z,1010.71
2018-12-24T03:48:17.945Z,1010.73
2018-12-24T03:49:17.919Z,1010.76
2018-12-24T03:50:17.893Z,1010.77
2018-12-24T03:51:17.867Z,1010.82
2018-12-24T03:52:17.852Z,1010.87
2018-12-24T03:53:17.816Z,1010.82
2018-12-24T03:54:17.792Z,1010.88
2018-12-24T03:55:17.763Z,1010.84
2018-12-24T03:56:17.739Z,1010.90
2018-12-24T03:57:17.714Z,1010.93
2018-12-24T03:58:17.691Z,1010.96
2018-12-24T03:59:17.661Z,1010.96
2018-12-24T04:00:17.635Z,1010.95
2018-12-24T04:01:17.610Z,1010.96
2018-12-24T04:02:17.584Z,1011.00
2018-12-24T04:03:17.557Z,1010.99
2018-12-24T04:04:17.534Z,1011.03
2018-12-24T04:05:17.506Z,1011.09
2018-12-24T04:06:17.482Z,1011.15
2018-12-24T04:07:17.457Z,1011.16
2018-12-24T04:08:17.430Z,1011.17
2018-12-24T04:09:17.406Z,1011.20
2018-12-24T04:10:17.377Z,1011.26
2018-12-24T04:11:17.352Z,1011.31
2018-12-24T04:12:17.326Z,1011.30
2018-12-24T04:13:22.388Z,1011.31
2018-12-24T04:14:17.277Z,1011.35
2018-12-24T04:15:17.249Z,1011.35
2018-12-24T04:16:17.230Z,1011.40
2018-12-24T04:17:17.198Z,1011.36
2018-12-24T04:18:17.173Z,1011.46
2018-12-24T04:19:17.144Z,1011.38
2018-12-24T04:20:17.120Z,1011.44
2018-12-24T04:21:17.095Z,1011.47
2018-12-24T04:22:17.070Z,1011.46
2018-12-24T04:23:17.044Z,1011.51
2018-12-24T04:24:17.017Z,1011.47
2018-12-24T04:25:16.991Z,1011.56
2018-12-24T04:26:16.967Z,1011.55
2018-12-24T04:27:16.949Z,1011.62
2018-12-24T04:28:16.915Z,1011.66
2018-12-24T04:29:16.887Z,1011.70
2018-12-24T04:30:16.861Z,1011.75
2018-12-24T04:31:16.838Z,1011.75
2018-12-24T04:32:16.811Z,1011.82
2018-12-24T04:33:16.784Z,1011.85
2018-12-24T04:34:16.760Z,1011.88
2018-12-24T04:35:16.732Z,1011.91
2018-12-24T04:36:16.714Z,1011.91
2018-12-24T04:37:16.679Z,1011.97
2018-12-24T04:38:16.654Z,1012.04
2018-12-24T04:39:16.694Z,1012.05
2018-12-24T04:40:16.603Z,1012.06
2018-12-24T04:41:16.579Z,1012.04
2018-12-24T04:42:16.610Z,1012.05
2018-12-24T04:43:16.524Z,1012.07
2018-12-24T04:44:16.497Z,1012.10
2018-12-24T04:45:16.473Z,1012.13
2018-12-24T04:46:16.447Z,1012.13
2018-12-24T04:47:16.425Z,1012.18
2018-12-24T04:48:16.394Z,1012.18
2018-12-24T04:49:16.368Z,1012.24
2018-12-24T04:50:16.450Z,1012.25
2018-12-24T04:51:16.316Z,1012.29
2018-12-24T04:52:16.291Z,1012.33
2018-12-24T04:53:16.267Z,1012.32
2018-12-24T04:54:16.237Z,1012.34
2018-12-24T04:55:16.215Z,1012.38
2018-12-24T04:56:16.187Z,1012.38
2018-12-24T04:57:16.161Z,1012.40
2018-12-24T04:58:16.136Z,1012.43
2018-12-24T04:59:16.106Z,1012.49
2018-12-24T05:00:16.084Z,1012.55
2018-12-24T05:01:16.054Z,1012.57
2018-12-24T05:02:16.028Z,1012.59
2018-12-24T05:03:16.002Z,1012.65
2018-12-24T05:04:15.977Z,1012.70
2018-12-24T05:05:15.954Z,1012.70
2018-12-24T05:06:15.928Z,1012.73
2018-12-24T05:07:15.897Z,1012.78
2018-12-24T05:08:15.871Z,1012.81
2018-12-24T05:09:15.844Z,1012.82
2018-12-24T05:10:15.819Z,1012.87
2018-12-24T05:11:15.792Z,1012.90
2018-12-24T05:12:15.765Z,1012.89
2018-12-24T05:13:15.738Z,1012.91
2018-12-24T05:14:15.713Z,1013.01
2018-12-24T05:15:15.686Z,1013.07
2018-12-24T05:16:15.666Z,1013.12
2018-12-24T05:17:15.635Z,1013.15
2018-12-24T05:18:15.608Z,1013.15
2018-12-24T05:19:15.582Z,1013.18
2018-12-24T05:20:15.555Z,1013.19
2018-12-24T05:21:15.528Z,1013.26
2018-12-24T05:22:15.504Z,1013.25
2018-12-24T05:23:15.476Z,1013.25
2018-12-24T05:24:15.450Z,1013.33
2018-12-24T05:25:15.424Z,1013.37
2018-12-24T05:26:15.398Z,1013.42
2018-12-24T05:27:15.371Z,1013.48
2018-12-24T05:28:15.344Z,1013.52
2018-12-24T05:29:15.319Z,1013.56
2018-12-24T05:30:15.292Z,1013.60
2018-12-24T05:31:15.265Z,1013.61
2018-12-24T05:32:15.240Z,1013.66
2018-12-24T05:33:15.214Z,1013.69
2018-12-24T05:34:15.188Z,1013.72
2018-12-24T05:35:15.160Z,1013.77
2018-12-24T05:36:15.134Z,1013.75
2018-12-24T05:37:15.108Z,1013.86
2018-12-24T05:38:15.083Z,1013.87
2018-12-24T05:39:15.055Z,1013.95
2018-12-24T05:40:15.031Z,1013.95
2018-12-24T05:41:15.005Z,1013.97
2018-12-24T05:42:14.978Z,1014.00
2018-12-24T05:43:14.950Z,1014.02
2018-12-24T05:44:14.924Z,1014.01
2018-12-24T05:45:14.898Z,1014.03
2018-12-24T05:46:14.871Z,1014.05
2018-12-24T05:47:14.845Z,1014.07
2018-12-24T05:48:14.823Z,1014.13
2018-12-24T05:49:14.793Z,1014.15
2018-12-24T05:50:14.766Z,1014.18
2018-12-24T05:51:14.740Z,1014.22
2018-12-24T05:52:14.725Z,1014.29
2018-12-24T05:53:14.687Z,1014.31
2018-12-24T05:54:14.662Z,1014.35
2018-12-24T05:55:14.634Z,1014.37
2018-12-24T05:56:14.608Z,1014.40
2018-12-24T05:57:14.582Z,1014.45
2018-12-24T05:58:14.556Z,1014.45
2018-12-24T05:59:14.529Z,1014.51
2018-12-24T06:00:14.502Z,1014.57
2018-12-24T06:01:14.476Z,1014.59
2018-12-24T06:02:14.450Z,1014.62
2018-12-24T06:03:14.423Z,1014.61
2018-12-24T06:04:14.397Z,1014.67
2018-12-24T06:05:14.372Z,1014.66
2018-12-24T06:06:14.347Z,1014.69
2018-12-24T06:07:14.317Z,1014.71
2018-12-24T06:08:14.292Z,1014.75
2018-12-24T06:09:14.265Z,1014.76
2018-12-24T06:10:14.241Z,1014.74
2018-12-24T06:11:14.211Z,1014.83
2018-12-24T06:12:14.186Z,1014.86
2018-12-24T06:13:14.163Z,1014.95
2018-12-24T06:14:14.134Z,1014.95
2018-12-24T06:15:14.107Z,1014.96
2018-12-24T06:16:14.079Z,1015.07
2018-12-24T06:17:14.059Z,1015.14
2018-12-24T06:18:14.030Z,1015.13
2018-12-24T06:19:14.002Z,1015.14
2018-12-24T06:20:13.975Z,1015.14
2018-12-24T06:21:13.951Z,1015.19
2018-12-24T06:22:13.923Z,1015.21
2018-12-24T06:23:13.895Z,1015.27
2018-12-24T06:24:13.870Z,1015.31
2018-12-24T06:25:13.843Z,1015.34
2018-12-24T06:26:13.816Z,1015.36
2018-12-24T06:27:13.790Z,1015.33
2018-12-24T06:28:13.763Z,1015.36
2018-12-24T06:29:13.737Z,1015.34
2018-12-24T06:30:13.712Z,1015.42
2018-12-24T06:31:13.684Z,1015.50
2018-12-24T06:32:13.659Z,1015.55
2018-12-24T06:33:13.631Z,1015.54
2018-12-24T06:34:13.607Z,1015.63
2018-12-24T06:35:13.579Z,1015.67
2018-12-24T06:36:13.552Z,1015.65
2018-12-24T06:37:13.527Z,1015.64
2018-12-24T06:38:13.502Z,1015.71
2018-12-24T06:39:13.472Z,1015.71
2018-12-24T06:40:13.447Z,1015.72
2018-12-24T06:41:13.419Z,1015.76
2018-12-24T06:42:13.394Z,1015.74
2018-12-24T06:43:13.367Z,1015.82
2018-12-24T06:44:13.340Z,1015.81
2018-12-24T06:45:13.315Z,1015.83
2018-12-24T06:46:13.287Z,1015.87
2018-12-24T06:47:13.261Z,1015.95
2018-12-24T06:48:13.234Z,1015.96
2018-12-24T06:49:13.208Z,1016.00
2018-12-24T06:50:13.182Z,1016.01
2018-12-24T06:51:13.154Z,1016.11
2018-12-24T06:52:13.128Z,1016.11
2018-12-24T06:53:13.101Z,1016.17
2018-12-24T06:54:13.075Z,1016.21
2018-12-24T06:55:13.047Z,1016.21
2018-12-24T06:56:13.022Z,1016.22
2018-12-24T06:57:12.995Z,1016.24
2018-12-24T06:58:12.968Z,1016.21
2018-12-24T06:59:12.949Z,1016.22
2018-12-24T07:00:12.914Z,1016.26
2018-12-24T07:01:12.888Z,1016.26
2018-12-24T07:02:12.862Z,1016.31
2018-12-24T07:03:12.834Z,1016.32
2018-12-24T07:04:12.808Z,1016.29
2018-12-24T07:05:12.784Z,1016.33
2018-12-24T07:06:12.755Z,1016.35
2018-12-24T07:07:12.727Z,1016.42
2018-12-24T07:08:12.700Z,1016.46
2018-12-24T07:09:12.674Z,1016.48
2018-12-24T07:10:12.648Z,1016.53
2018-12-24T07:11:12.621Z,1016.57
2018-12-24T07:12:12.595Z,1016.60
2018-12-24T07:13:12.567Z,1016.67
2018-12-24T07:14:15.571Z,1016.66
2018-12-24T07:15:12.514Z,1016.67
2018-12-24T07:16:12.486Z,1016.73
2018-12-24T07:17:12.460Z,1016.79
2018-12-24T07:18:12.434Z,1016.86
2018-12-24T07:19:12.407Z,1016.87
2018-12-24T07:20:12.381Z,1016.85
2018-12-24T07:21:12.354Z,1016.89
2018-12-24T07:22:12.327Z,1016.89
2018-12-24T07:23:12.299Z,1016.92
2018-12-24T07:24:12.273Z,1016.86
2018-12-24T07:25:12.246Z,1016.91
2018-12-24T07:26:12.220Z,1016.94
2018-12-24T07:27:12.192Z,1016.95
2018-12-24T07:28:12.167Z,1017.00
2018-12-24T07:29:12.139Z,1017.04
2018-12-24T07:30:12.112Z,1017.07
2018-12-24T07:31:12.085Z,1017.16
2018-12-24T07:32:12.058Z,1017.17
2018-12-24T07:33:12.032Z,1017.19
2018-12-24T07:34:12.006Z,1017.26
2018-12-24T07:35:11.976Z,1017.29
2018-12-24T07:36:11.949Z,1017.26
2018-12-24T07:37:11.924Z,1017.31
2018-12-24T07:38:11.897Z,1017.34
2018-12-24T07:39:11.869Z,1017.35
2018-12-24T07:40:11.845Z,1017.34
2018-12-24T07:41:11.816Z,1017.35
2018-12-24T07:42:11.789Z,1017.36
2018-12-24T07:43:11.762Z,1017.38
2018-12-24T07:44:11.735Z,1017.36
2018-12-24T07:45:11.708Z,1017.36
2018-12-24T07:46:11.682Z,1017.41
2018-12-24T07:47:11.653Z,1017.40
2018-12-24T07:48:11.626Z,1017.46
2018-12-24T07:49:11.598Z,1017.46
2018-12-24T07:50:11.574Z,1017.52
2018-12-24T07:51:11.544Z,1017.50
2018-12-24T07:52:11.525Z,1017.57
2018-12-24T07:53:11.497Z,1017.60
2018-12-24T07:54:11.463Z,1017.67
2018-12-24T07:55:11.435Z,1017.67
2018-12-24T07:56:11.408Z,1017.74
2018-12-24T07:57:11.383Z,1017.78
2018-12-24T07:58:11.355Z,1017.80
2018-12-24T07:59:11.327Z,1017.81
2018-12-24T08:00:11.299Z,1017.81
2018-12-24T08:01:11.272Z,1017.83
2018-12-24T08:02:11.245Z,1017.85
2018-12-24T08:03:11.217Z,1017.89
2018-12-24T08:04:11.190Z,1017.94
2018-12-24T08:05:11.162Z,1017.99
2018-12-24T08:06:11.136Z,1017.98
2018-12-24T08:07:11.111Z,1017.97
2018-12-24T08:08:11.081Z,1017.98
2018-12-24T08:09:11.053Z,1018.00
2018-12-24T08:10:11.027Z,1018.03
2018-12-24T08:11:10.999Z,1018.02
2018-12-24T08:12:12.876Z,1018.06
2018-12-24T08:13:10.945Z,1018.06
2018-12-24T08:14:10.917Z,1018.03
2018-12-24T08:15:10.889Z,1018.04
2018-12-24T08:16:10.862Z,1018.05
2018-12-24T08:17:10.835Z,1018.07
2018-12-24T08:18:10.807Z,1018.10
2018-12-24T08:19:10.779Z,1018.11
2018-12-24T08:20:10.753Z,1018.11
2018-12-24T08:21:10.725Z,1018.14
2018-12-24T08:22:10.697Z,1018.14
2018-12-24T08:23:10.672Z,1018.12
2018-12-24T08:24:10.643Z,1018.13
2018-12-24T08:25:10.620Z,1018.13
2018-12-24T08:26:10.592Z,1018.08
2018-12-24T08:27:10.563Z,1018.16
2018-12-24T08:28:10.534Z,1018.18
2018-12-24T08:29:10.509Z,1018.22
2018-12-24T08:30:10.481Z,1018.18
2018-12-24T08:31:10.452Z,1018.22
2018-12-24T08:32:11.494Z,1018.20
2018-12-24T08:33:10.400Z,1018.21
2018-12-24T08:34:10.372Z,1018.20
2018-12-24T08:35:10.344Z,1018.25
2018-12-24T08:36:10.319Z,1018.30
2018-12-24T08:37:10.291Z,1018.32
2018-12-24T08:38:10.265Z,1018.35
2018-12-24T08:39:10.237Z,1018.33
2018-12-24T08:40:10.210Z,1018.34
2018-12-24T08:41:10.184Z,1018.35
2018-12-24T08:42:10.157Z,1018.38
2018-12-24T08:43:10.129Z,1018.67
2018-12-24T08:44:10.103Z,1018.65
2018-12-24T08:45:10.076Z,1018.68
2018-12-24T08:46:10.050Z,1018.84
2018-12-24T08:47:10.020Z,1018.87
2018-12-24T08:48:09.996Z,1018.93
2018-12-24T08:49:09.974Z,1018.86
2018-12-24T08:50:09.946Z,1018.80
2018-12-24T08:51:09.915Z,1018.82
2018-12-24T08:52:09.890Z,1018.85
2018-12-24T08:53:09.863Z,1018.87
2018-12-24T08:54:09.839Z,1018.89
2018-12-24T08:55:09.811Z,1018.87
2018-12-24T08:56:09.785Z,1018.93
2018-12-24T08:57:09.759Z,1018.91
2018-12-24T08:58:09.733Z,1018.95
2018-12-24T08:59:09.707Z,1018.88
2018-12-24T09:00:09.683Z,1018.89
2018-12-24T09:01:09.655Z,1018.99
2018-12-24T09:02:09.628Z,1018.95
2018-12-24T09:03:09.602Z,1019.01
2018-12-24T09:04:09.576Z,1019.02
2018-12-24T09:05:09.550Z,1019.04
2018-12-24T09:06:09.525Z,1019.03
2018-12-24T09:07:09.498Z,1019.03
2018-12-24T09:08:09.473Z,1019.05
2018-12-24T09:09:09.447Z,1019.06
2018-12-24T09:10:09.422Z,1019.16
2018-12-24T09:11:09.397Z,1019.22
2018-12-24T09:12:09.367Z,1019.21
2018-12-24T09:13:09.341Z,1019.24
2018-12-24T09:14:09.317Z,1019.23
2018-12-24T09:15:09.292Z,1019.31
2018-12-24T09:16:09.263Z,1019.40
2018-12-24T09:17:09.238Z,1019.42
2018-12-24T09:18:09.211Z,1019.42
2018-12-24T09:19:09.186Z,1019.45
2018-12-24T09:20:09.157Z,1019.43
2018-12-24T09:21:09.134Z,1019.48
2018-12-24T09:22:09.106Z,1019.50
2018-12-24T09:23:09.079Z,1019.55
2018-12-24T09:24:09.053Z,1019.59
2018-12-24T09:25:09.026Z,1019.63
2018-12-24T09:26:09.002Z,1019.61
2018-12-24T09:27:08.977Z,1019.64
2018-12-24T09:28:08.946Z,1019.67
2018-12-24T09:29:08.921Z,1019.67
2018-12-24T09:30:08.895Z,1019.69
2018-12-24T09:31:08.869Z,1019.75
2018-12-24T09:32:08.841Z,1019.76
2018-12-24T09:33:08.815Z,1019.79
2018-12-24T09:34:08.787Z,1019.82
2018-12-24T09:35:08.761Z,1019.80
2018-12-24T09:36:08.735Z,1019.85
2018-12-24T09:37:08.708Z,1019.86
2018-12-24T09:38:08.682Z,1019.82
2018-12-24T09:39:08.654Z,1019.82
2018-12-24T09:40:08.629Z,1019.84
2018-12-24T09:41:08.603Z,1019.85
2018-12-24T09:42:08.576Z,1019.87
2018-12-24T09:43:08.548Z,1019.88
2018-12-24T09:44:08.522Z,1019.89
2018-12-24T09:45:08.496Z,1019.90
2018-12-24T09:46:08.470Z,1019.94
2018-12-24T09:47:08.441Z,1019.91
2018-12-24T09:48:08.416Z,1019.91
2018-12-24T09:49:08.389Z,1019.91
2018-12-24T09:50:08.364Z,1019.98
2018-12-24T09:51:08.339Z,1019.99
2018-12-24T09:52:08.309Z,1019.98
2018-12-24T09:53:08.281Z,1020.01
2018-12-24T09:54:08.256Z,1019.98
2018-12-24T09:55:08.231Z,1019.98
2018-12-24T09:56:12.200Z,1019.98
2018-12-24T09:57:08.176Z,1020.02
2018-12-24T09:58:08.149Z,1020.01
2018-12-24T09:59:08.120Z,1020.02
2018-12-24T10:00:08.101Z,1020.06
2018-12-24T10:01:08.068Z,1020.07
2018-12-24T10:02:08.041Z,1020.06
2018-12-24T10:03:08.015Z,1020.10
2018-12-24T10:04:07.988Z,1020.06
2018-12-24T10:05:07.961Z,1020.11
2018-12-24T10:06:07.936Z,1020.15
2018-12-24T10:07:07.908Z,1020.17
2018-12-24T10:08:07.882Z,1020.18
2018-12-24T10:09:07.855Z,1020.25
2018-12-24T10:10:07.829Z,1020.28
2018-12-24T10:11:07.802Z,1020.28
2018-12-24T10:12:07.779Z,1020.24
2018-12-24T10:13:07.748Z,1020.29
2018-12-24T10:14:07.726Z,1020.26
2018-12-24T10:15:08.250Z,1020.33
2018-12-24T10:16:07.668Z,1020.31
2018-12-24T10:17:07.642Z,1020.25
2018-12-24T10:18:07.615Z,1020.15
2018-12-24T10:19:07.587Z,1020.20
2018-12-24T10:20:07.561Z,1020.19
2018-12-24T10:21:07.536Z,1020.20
2018-12-24T10:22:07.509Z,1020.20
2018-12-24T10:23:07.487Z,1020.18
2018-12-24T10:24:07.455Z,1020.24
2018-12-24T10:25:07.430Z,1020.25
2018-12-24T10:26:07.402Z,1020.26
2018-12-24T10:27:07.375Z,1020.36
2018-12-24T10:28:07.347Z,1020.37
2018-12-24T10:29:07.321Z,1020.36
2018-12-24T10:30:07.295Z,1020.40
2018-12-24T10:31:07.267Z,1020.45
2018-12-24T10:32:07.245Z,1020.42
2018-12-24T10:33:07.214Z,1020.40
2018-12-24T10:34:07.187Z,1020.37
2018-12-24T10:35:07.159Z,1020.39
2018-12-24T10:36:07.133Z,1020.40
2018-12-24T10:37:07.106Z,1020.38
2018-12-24T10:38:07.079Z,1020.36
2018-12-24T10:39:07.053Z,1020.39
2018-12-24T10:40:07.028Z,1020.39
2018-12-24T10:41:07.000Z,1020.40
2018-12-24T10:42:06.973Z,1020.47
2018-12-24T10:43:06.944Z,1020.43
2018-12-24T10:44:06.919Z,1020.45
2018-12-24T10:45:06.897Z,1020.48
2018-12-24T10:46:06.867Z,1020.40
2018-12-24T10:47:06.838Z,1020.39
2018-12-24T10:48:06.813Z,1020.40
2018-12-24T10:49:06.787Z,1020.44
2018-12-24T10:50:06.761Z,1020.50
2018-12-24T10:51:06.733Z,1020.47
2018-12-24T10:52:06.709Z,1020.45
2018-12-24T10:53:06.679Z,1020.47
2018-12-24T10:54:06.654Z,1020.54
2018-12-24T10:55:06.629Z,1020.55
2018-12-24T10:56:06.600Z,1020.58
2018-12-24T10:57:06.573Z,1020.55
2018-12-24T10:58:06.546Z,1020.56
2018-12-24T10:59:06.520Z,1020.62
2018-12-24T11:00:06.493Z,1020.63
2018-12-24T11:01:06.587Z,1020.62
2018-12-24T11:02:06.441Z,1020.62
2018-12-24T11:03:06.415Z,1020.58
2018-12-24T11:04:06.389Z,1020.59
2018-12-24T11:05:06.361Z,1020.58
2018-12-24T11:06:06.335Z,1020.57
2018-12-24T11:07:06.311Z,1020.55
2018-12-24T11:08:06.284Z,1020.59
2018-12-24T11:09:06.259Z,1020.56
2018-12-24T11:10:06.229Z,1020.51
2018-12-24T11:11:06.203Z,1020.62
2018-12-24T11:12:06.176Z,1020.70
2018-12-24T11:13:06.149Z,1020.70
2018-12-24T11:14:06.123Z,1020.68
2018-12-24T11:15:06.095Z,1020.72
2018-12-24T11:16:06.069Z,1020.75
2018-12-24T11:17:06.047Z,1020.73
2018-12-24T11:18:06.016Z,1020.78
2018-12-24T11:19:05.989Z,1020.83
2018-12-24T11:20:05.968Z,1020.82
2018-12-24T11:21:05.938Z,1020.81
2018-12-24T11:22:05.911Z,1020.82
2018-12-24T11:23:05.884Z,1020.88
2018-12-24T11:24:05.857Z,1020.85
2018-12-24T11:25:05.833Z,1020.84
2018-12-24T11:26:05.804Z,1020.81
2018-12-24T11:27:05.778Z,1020.86
2018-12-24T11:28:05.752Z,1020.85
2018-12-24T11:29:05.726Z,1020.84
2018-12-24T11:30:05.701Z,1020.86
2018-12-24T11:31:05.671Z,1020.84
2018-12-24T11:32:05.648Z,1020.83
2018-12-24T11:33:05.670Z,1020.78
2018-12-24T11:34:05.593Z,1020.76
2018-12-24T11:35:05.566Z,1020.77
2018-12-24T11:36:05.539Z,1020.76
2018-12-24T11:37:05.514Z,1020.79
2018-12-24T11:38:05.488Z,1020.73
2018-12-24T11:39:05.461Z,1020.78
2018-12-24T11:40:05.435Z,1020.82
2018-12-24T11:41:05.408Z,1020.81
2018-12-24T11:42:05.382Z,1020.83
2018-12-24T11:43:05.355Z,1020.83
2018-12-24T11:44:05.330Z,1020.83
2018-12-24T11:45:05.302Z,1020.83
2018-12-24T11:46:05.275Z,1020.83
2018-12-24T11:47:05.248Z,1020.84
2018-12-24T11:48:05.223Z,1020.83
2018-12-24T11:49:05.197Z,1020.83
2018-12-24T11:50:05.273Z,1020.82
2018-12-24T11:51:05.145Z,1020.80
2018-12-24T11:52:05.116Z,1020.83
2018-12-24T11:53:05.092Z,1020.80
2018-12-24T11:54:05.065Z,1020.81
2018-12-24T11:55:05.045Z,1020.81
2018-12-24T11:56:05.012Z,1021.43
2018-12-24T11:57:04.986Z,1020.85
2018-12-24T11:58:04.959Z,1020.90
2018-12-24T11:59:04.932Z,1020.90
2018-12-24T12:00:04.908Z,1020.87
2018-12-24T12:01:04.879Z,1020.90
2018-12-24T12:02:09.994Z,1020.86
2018-12-24T12:03:04.826Z,1020.97
2018-12-24T12:04:04.798Z,1021.43
2018-12-24T12:05:04.773Z,1021.11